Bloomington (BMI/KBMI)

Map

Information

Location
Bloomington, IL
Local Time
22:34 / 10:34 pm
GMT Time
03:34 / 3:34 am
Gates
A1
No FAA reported delays
METAR KBMI 260256Z 08004KT 7SM CLR 14/12 A2978 RMK AO2 SLP107 T01440122 51019
TAF KBMI 252320Z 2600/2624 33005KT P6SM SKC FM260600 15004KT P6SM SCT200 FM261400 14008KT P6SM BKN150 FM262000 17010G15KT P6SM VCTS BKN045CB